KCHK/CHK METAR and TAF weather

Enter ICAO airport designator
Station Type Date Time Source
KCHK METAR 2022/12/08 13:15 UTC NOAA

KCHK 081315Z AUTO 00000KT 3/4SM BR OVC002 09/08 A3013 RMK AO2 T00870084


Station Type Date Time Source
KCHK Decoded METAR 2022/12/08 13:15 UTC NOAA

Chickasha, Chickasha Municipal Airport, OK, United States (KCHK) 35-05-46N 097-57-58W
Dec 08, 2022 - 08:15 AM EST / 2022.12.08 1315 UTC
Wind: Calm:0
Visibility: 3/4 mile(s):0
Sky conditions: overcast
Weather: mist
Temperature: 47.7 F (8.7 C)
Dew Point: 47.1 F (8.4 C)
Relative Humidity: 97%
Pressure (altimeter): 30.13 in. Hg (1020 hPa)
ob: KCHK 081315Z AUTO 00000KT 3/4SM BR OVC002 09/08 A3013 RMK AO2 T00870084
cycle: 13

Station Type Date Time Source
KCHK TAF UTC NOAA

Error!

Example: see airport list